Time;durP1;ratioP1;P1;durP2;ratioP2;P2;SDS_P1;SDS_P2;PMS_P1;PMS_P2;Temp;Humidity;BMP_temperature;BMP_pressure;BME280_temperature;BME280_humidity;BME280_pressure;Samples;Min_cycle;Max_cycle;Signal;HPM_P1;HPM_P2
2023/08/30 00:00:37;;;;;;;10.00;3.95;;;13.80;99.90;;;;;;5046320;28;20526;-34
2023/08/30 00:03:03;;;;;;;6.30;3.60;;;13.80;99.90;;;;;;5066494;28;20048;-34
2023/08/30 00:05:29;;;;;;;5.70;3.50;;;13.70;99.90;;;;;;5071262;28;20055;-34
2023/08/30 00:07:54;;;;;;;6.88;4.00;;;13.70;99.90;;;;;;5067261;28;20051;-33
2023/08/30 00:10:20;;;;;;;8.77;4.45;;;13.60;99.90;;;;;;5036321;28;20418;-34
2023/08/30 00:12:46;;;;;;;5.30;3.63;;;13.60;99.90;;;;;;5064591;28;20409;-33
2023/08/30 00:15:11;;;;;;;5.15;2.95;;;13.50;99.90;;;;;;5069896;28;20044;-34
2023/08/30 00:17:37;;;;;;;6.00;3.90;;;13.50;99.90;;;;;;5066663;28;20051;-34
2023/08/30 00:20:03;;;;;;;7.20;3.80;;;13.50;99.90;;;;;;5043726;28;20056;-33
2023/08/30 00:22:29;;;;;;;7.32;3.42;;;13.50;99.90;;;;;;5071796;28;20155;-34
2023/08/30 00:24:54;;;;;;;5.43;3.58;;;13.40;99.90;;;;;;5071345;28;20075;-34
2023/08/30 00:27:20;;;;;;;6.18;4.03;;;13.40;99.90;;;;;;5069168;28;20134;-34
2023/08/30 00:29:46;;;;;;;9.52;4.03;;;13.40;99.90;;;;;;5073353;28;20543;-34
2023/08/30 00:32:12;;;;;;;4.78;3.42;;;13.40;99.90;;;;;;5072271;28;20052;-34
2023/08/30 00:34:37;;;;;;;5.95;3.47;;;13.40;99.90;;;;;;5068232;28;20047;-35
2023/08/30 00:37:03;;;;;;;6.43;4.00;;;13.30;99.90;;;;;;5067005;28;20052;-34
2023/08/30 00:39:29;;;;;;;8.52;3.03;;;13.30;99.90;;;;;;5071438;28;20133;-34
2023/08/30 00:41:55;;;;;;;5.80;3.75;;;13.30;99.90;;;;;;5070661;28;20051;-35
2023/08/30 00:44:20;;;;;;;6.45;3.97;;;13.30;99.90;;;;;;5071397;28;20071;-35
2023/08/30 00:46:46;;;;;;;5.40;3.42;;;13.30;99.90;;;;;;5065922;28;20561;-34
2023/08/30 00:49:14;;;;;;;8.38;3.80;;;13.30;99.90;;;;;;5072454;28;20143;-34
2023/08/30 00:51:40;;;;;;;7.45;4.38;;;13.30;99.90;;;;;;5071863;28;20048;-34
2023/08/30 00:54:06;;;;;;;6.30;4.15;;;13.30;99.90;;;;;;5078383;28;20063;-34
2023/08/30 00:56:33;;;;;;;4.82;3.45;;;13.30;99.90;;;;;;5068759;28;20044;-34
2023/08/30 00:58:59;;;;;;;6.25;4.38;;;13.30;99.90;;;;;;5063479;28;20135;-34
2023/08/30 01:01:26;;;;;;;6.38;4.05;;;13.30;99.90;;;;;;5048910;28;20052;-34
2023/08/30 01:03:52;;;;;;;6.10;3.60;;;13.40;99.90;;;;;;5065596;28;20053;-34
2023/08/30 01:06:17;;;;;;;5.55;3.85;;;13.40;99.90;;;;;;5067252;28;20090;-34
2023/08/30 01:08:43;;;;;;;4.97;3.67;;;13.50;99.90;;;;;;5075580;28;20448;-34
2023/08/30 01:11:27;;;;;;;5.60;3.60;;;13.50;99.90;;;;;;5059813;28;20048;-34
2023/08/30 01:14:03;;;;;;;5.78;4.00;;;13.60;99.90;;;;;;5071531;28;20394;-34
2023/08/30 01:16:30;;;;;;;6.13;4.13;;;13.60;99.90;;;;;;5062853;28;20494;-35
2023/08/30 01:18:57;;;;;;;5.70;3.63;;;13.60;99.90;;;;;;5068267;28;20078;-34
2023/08/30 01:21:39;;;;;;;6.20;4.10;;;13.70;99.90;;;;;;5071967;28;20048;-34
2023/08/30 01:24:09;;;;;;;5.80;4.18;;;13.70;99.90;;;;;;5043540;28;20045;-34
2023/08/30 01:26:59;;;;;;;6.20;3.75;;;13.70;99.90;;;;;;5050640;28;20063;-35
2023/08/30 01:29:26;;;;;;;6.70;4.57;;;13.80;99.90;;;;;;5052980;28;20045;-35
2023/08/30 01:31:53;;;;;;;7.70;4.40;;;13.80;99.90;;;;;;5043594;28;20049;-35
2023/08/30 01:34:19;;;;;;;4.93;3.50;;;13.80;99.90;;;;;;5046653;28;20636;-35
2023/08/30 01:36:45;;;;;;;6.57;3.85;;;13.80;99.90;;;;;;5045552;28;20465;-35
2023/08/30 01:39:12;;;;;;;6.43;3.80;;;13.80;99.90;;;;;;5029292;28;20057;-34
2023/08/30 01:41:38;;;;;;;5.75;3.63;;;13.80;99.90;;;;;;5011135;28;20033;-34
2023/08/30 01:44:07;;;;;;;5.80;3.90;;;13.70;99.90;;;;;;5032591;28;20482;-34
2023/08/30 01:46:34;;;;;;;5.45;4.20;;;13.70;99.90;;;;;;5044779;28;20049;-34
2023/08/30 01:49:06;;;;;;;5.43;4.03;;;13.70;99.90;;;;;;5049346;28;20053;-34
2023/08/30 01:51:33;;;;;;;7.20;3.72;;;13.70;99.90;;;;;;5063764;28;20060;-34
2023/08/30 01:53:58;;;;;;;6.15;3.80;;;13.60;99.90;;;;;;5058106;28;20048;-34
2023/08/30 01:56:24;;;;;;;6.38;4.00;;;13.60;99.90;;;;;;5071023;28;20504;-34
2023/08/30 01:58:50;;;;;;;5.70;3.78;;;13.60;99.90;;;;;;5068547;28;20055;-34
2023/08/30 02:01:15;;;;;;;6.07;3.42;;;13.60;99.90;;;;;;5084768;28;20043;-34
2023/08/30 02:03:45;;;;;;;6.75;3.78;;;13.60;99.90;;;;;;5075775;28;20115;-34
2023/08/30 02:06:23;;;;;;;7.00;3.90;;;13.50;99.90;;;;;;5067093;28;20047;-34
2023/08/30 02:09:14;;;;;;;7.35;4.07;;;13.50;99.90;;;;;;5066312;28;20055;-34
2023/08/30 02:11:43;;;;;;;6.22;3.83;;;13.50;99.90;;;;;;5066948;28;20048;-43
2023/08/30 02:14:11;;;;;;;6.45;4.20;;;13.40;99.90;;;;;;5079032;28;20478;-34
2023/08/30 02:16:39;;;;;;;6.80;4.57;;;13.40;99.90;;;;;;5078601;28;20075;-34
2023/08/30 02:19:06;;;;;;;6.18;4.15;;;13.40;99.90;;;;;;5076612;28;20055;-35
2023/08/30 02:21:32;;;;;;;5.47;3.40;;;13.30;99.90;;;;;;5066784;28;20139;-34
2023/08/30 02:23:57;;;;;;;6.47;4.03;;;13.30;99.90;;;;;;5064760;28;20174;-34
2023/08/30 02:26:23;;;;;;;7.10;4.30;;;13.30;99.90;;;;;;5064967;28;20070;-34
2023/08/30 02:28:49;;;;;;;5.93;4.13;;;13.20;99.90;;;;;;5069875;28;20456;-34
2023/08/30 02:31:14;;;;;;;10.02;4.47;;;13.20;99.90;;;;;;5070157;28;20045;-34
2023/08/30 02:33:40;;;;;;;6.65;4.40;;;13.20;99.90;;;;;;5066365;28;20040;-34
2023/08/30 02:36:06;;;;;;;7.72;4.22;;;13.20;99.90;;;;;;5066869;28;20513;-34
2023/08/30 02:38:31;;;;;;;7.13;4.57;;;13.20;99.90;;;;;;5064481;28;20068;-34
2023/08/30 02:40:57;;;;;;;6.05;3.92;;;13.20;99.90;;;;;;5070558;28;20052;-35
2023/08/30 02:43:23;;;;;;;8.43;4.45;;;13.20;99.90;;;;;;5066449;28;20612;-34
2023/08/30 02:45:48;;;;;;;6.95;4.90;;;13.20;99.90;;;;;;5070528;28;20109;-34
2023/08/30 02:48:14;;;;;;;7.10;4.28;;;13.30;99.90;;;;;;5066299;28;20076;-34
2023/08/30 02:50:41;;;;;;;6.45;4.07;;;13.20;99.90;;;;;;5063400;28;20048;-35
2023/08/30 02:53:09;;;;;;;7.40;4.90;;;13.30;99.90;;;;;;5073674;28;20070;-37
2023/08/30 02:55:35;;;;;;;7.32;4.38;;;13.30;99.90;;;;;;5066002;28;20113;-34
2023/08/30 02:58:01;;;;;;;6.68;4.63;;;13.30;99.90;;;;;;5072815;28;20148;-37
2023/08/30 03:00:27;;;;;;;7.38;4.40;;;13.30;99.90;;;;;;5067712;28;20604;-34
2023/08/30 03:02:52;;;;;;;8.32;4.47;;;13.30;99.90;;;;;;5068376;28;20056;-34
2023/08/30 03:05:18;;;;;;;7.15;4.07;;;13.40;99.90;;;;;;5067771;28;20079;-34
2023/08/30 03:07:44;;;;;;;7.68;4.45;;;13.40;99.90;;;;;;5066471;28;20048;-34
2023/08/30 03:10:11;;;;;;;6.60;3.92;;;13.40;99.90;;;;;;5075458;28;20155;-34
2023/08/30 03:12:37;;;;;;;7.95;4.60;;;13.40;99.90;;;;;;5077740;28;20098;-33
2023/08/30 03:15:04;;;;;;;6.35;4.20;;;13.40;99.90;;;;;;5060771;28;20048;-34
2023/08/30 03:17:30;;;;;;;6.50;3.85;;;13.50;99.90;;;;;;5069858;28;20076;-34
2023/08/30 03:19:55;;;;;;;6.95;4.53;;;13.50;99.90;;;;;;5072915;28;20464;-34
2023/08/30 03:22:21;;;;;;;7.10;4.50;;;13.50;99.90;;;;;;5071462;28;20144;-34
2023/08/30 03:24:49;;;;;;;8.13;4.57;;;13.50;99.90;;;;;;5074568;28;20506;-34
2023/08/30 03:27:15;;;;;;;6.00;3.90;;;13.50;99.90;;;;;;5074246;28;20049;-35
2023/08/30 03:29:40;;;;;;;7.20;4.15;;;13.50;99.90;;;;;;5070701;28;20041;-34
2023/08/30 03:32:06;;;;;;;7.13;4.63;;;13.50;99.90;;;;;;5066353;28;20079;-35
2023/08/30 03:34:32;;;;;;;7.10;4.60;;;13.50;99.90;;;;;;5074986;28;20063;-34
2023/08/30 03:36:57;;;;;;;8.18;4.30;;;13.50;99.90;;;;;;5070721;28;20119;-34
2023/08/30 03:39:24;;;;;;;7.60;4.75;;;13.50;99.90;;;;;;5074927;28;20091;-34
2023/08/30 03:41:50;;;;;;;8.25;4.15;;;13.60;99.90;;;;;;5072686;28;20097;-34
2023/08/30 03:44:16;;;;;;;7.90;4.43;;;13.60;99.90;;;;;;5074922;28;20490;-34
2023/08/30 03:46:41;;;;;;;6.05;3.95;;;13.60;99.90;;;;;;5070670;28;20048;-34
2023/08/30 03:49:07;;;;;;;7.70;4.47;;;13.60;99.90;;;;;;5077414;28;20576;-34
2023/08/30 03:51:33;;;;;;;8.57;4.07;;;13.60;99.90;;;;;;5063804;28;20068;-34
2023/08/30 03:53:59;;;;;;;7.68;4.75;;;13.60;99.90;;;;;;5077172;28;20501;-35
2023/08/30 03:56:25;;;;;;;7.93;4.20;;;13.60;99.90;;;;;;5059338;28;20102;-34
2023/08/30 03:58:50;;;;;;;7.15;4.50;;;13.60;99.90;;;;;;5075294;28;20052;-35
2023/08/30 04:01:16;;;;;;;6.85;4.75;;;13.60;99.90;;;;;;5079808;28;20051;-33
2023/08/30 04:03:42;;;;;;;6.32;4.13;;;13.60;99.90;;;;;;5071268;28;20052;-34
2023/08/30 04:06:07;;;;;;;7.13;3.90;;;13.60;99.90;;;;;;5073275;28;20122;-34
2023/08/30 04:08:33;;;;;;;7.63;4.78;;;13.60;99.90;;;;;;5073586;28;20484;-34
2023/08/30 04:10:59;;;;;;;6.85;4.47;;;13.60;99.90;;;;;;5074232;28;20060;-34
2023/08/30 04:13:24;;;;;;;9.35;4.85;;;13.70;99.90;;;;;;5077374;28;20132;-34
2023/08/30 04:15:51;;;;;;;7.70;4.72;;;13.60;99.90;;;;;;5072305;28;20048;-35
2023/08/30 04:18:17;;;;;;;8.05;4.43;;;13.60;99.90;;;;;;5069703;28;20040;-34
2023/08/30 04:20:47;;;;;;;11.10;4.45;;;13.60;99.90;;;;;;5070149;28;20083;-34
2023/08/30 04:23:13;;;;;;;5.90;4.13;;;13.60;99.90;;;;;;5073447;28;20083;-34
2023/08/30 04:25:39;;;;;;;7.22;4.80;;;13.60;99.90;;;;;;5068967;28;20053;-34
2023/08/30 04:28:04;;;;;;;8.52;5.43;;;13.60;99.90;;;;;;5072166;28;20056;-34
2023/08/30 04:30:30;;;;;;;7.78;4.85;;;13.60;99.90;;;;;;5072187;28;20067;-35
2023/08/30 04:32:56;;;;;;;7.80;4.60;;;13.60;99.90;;;;;;5071891;28;20060;-34
2023/08/30 04:35:21;;;;;;;8.10;4.63;;;13.60;99.90;;;;;;5066265;28;20098;-35
2023/08/30 04:37:50;;;;;;;8.25;4.40;;;13.60;99.90;;;;;;5056389;28;20065;-34
2023/08/30 04:40:16;;;;;;;11.27;4.80;;;13.60;99.90;;;;;;5062443;28;20489;-34
2023/08/30 04:42:41;;;;;;;6.65;4.47;;;13.50;99.90;;;;;;5067389;28;20053;-34
2023/08/30 04:45:07;;;;;;;7.13;4.63;;;13.50;99.90;;;;;;5070274;28;20102;-34
2023/08/30 04:47:33;;;;;;;10.15;4.93;;;13.50;99.90;;;;;;5070030;28;20053;-34
2023/08/30 04:49:59;;;;;;;7.40;4.78;;;13.50;99.90;;;;;;5073351;28;20418;-34
2023/08/30 04:52:25;;;;;;;8.70;5.15;;;13.50;99.90;;;;;;5071117;28;20044;-34
2023/08/30 04:54:51;;;;;;;8.35;4.70;;;13.50;99.90;;;;;;5073085;28;20052;-35
2023/08/30 04:57:17;;;;;;;8.48;4.70;;;13.50;99.90;;;;;;5071639;28;20059;-34
2023/08/30 04:59:43;;;;;;;7.47;4.97;;;13.50;99.90;;;;;;5074605;28;20777;-34
2023/08/30 05:02:09;;;;;;;7.75;5.57;;;13.50;99.90;;;;;;5052345;28;20052;-34
2023/08/30 05:04:35;;;;;;;7.63;4.95;;;13.50;99.90;;;;;;5073818;28;20453;-34
2023/08/30 05:07:01;;;;;;;8.80;5.43;;;13.50;99.90;;;;;;5068120;28;20552;-34
2023/08/30 05:09:26;;;;;;;8.35;5.47;;;13.40;99.90;;;;;;5072161;28;20410;-35
2023/08/30 05:11:53;;;;;;;8.50;4.78;;;13.40;99.90;;;;;;5058238;28;20370;-34
2023/08/30 05:14:19;;;;;;;7.63;5.32;;;13.50;99.90;;;;;;5075194;28;20095;-34
2023/08/30 05:16:45;;;;;;;9.13;4.70;;;13.50;99.90;;;;;;5068977;28;20063;-34
2023/08/30 05:19:11;;;;;;;8.10;4.57;;;13.50;99.90;;;;;;5077095;28;20048;-34
2023/08/30 05:21:36;;;;;;;8.45;5.18;;;13.50;99.90;;;;;;5069742;28;20490;-34
2023/08/30 05:24:03;;;;;;;8.00;5.13;;;13.60;99.90;;;;;;5064722;28;20505;-34
2023/08/30 05:26:28;;;;;;;9.50;5.43;;;13.60;99.90;;;;;;5069940;28;20044;-34
2023/08/30 05:28:54;;;;;;;7.05;4.38;;;13.60;99.90;;;;;;5065337;28;20059;-34
2023/08/30 05:31:20;;;;;;;8.40;4.93;;;13.60;99.90;;;;;;5064060;28;20136;-34
2023/08/30 05:33:45;;;;;;;9.00;5.25;;;13.70;99.90;;;;;;5073040;28;20036;-34
2023/08/30 05:36:11;;;;;;;9.38;5.30;;;13.70;99.90;;;;;;5073589;28;20036;-34
2023/08/30 05:38:37;;;;;;;12.98;5.50;;;13.70;99.90;;;;;;5071538;28;20110;-34
2023/08/30 05:41:02;;;;;;;10.25;5.45;;;13.80;99.90;;;;;;5070131;28;20142;-35
2023/08/30 05:43:28;;;;;;;9.25;5.30;;;13.80;99.90;;;;;;5057098;28;20052;-35
2023/08/30 05:45:54;;;;;;;9.38;5.45;;;13.90;99.90;;;;;;5065675;28;20089;-34
2023/08/30 05:48:19;;;;;;;10.55;5.63;;;13.90;99.90;;;;;;5069504;28;20486;-35
2023/08/30 05:50:45;;;;;;;8.18;4.78;;;13.90;99.90;;;;;;5069624;28;20052;-34
2023/08/30 05:53:11;;;;;;;11.73;5.90;;;14.00;99.90;;;;;;5065289;28;20055;-34
2023/08/30 05:55:37;;;;;;;7.40;4.40;;;14.00;99.90;;;;;;5066799;28;20048;-34
2023/08/30 05:58:03;;;;;;;8.35;5.82;;;14.10;99.90;;;;;;5050010;28;20111;-34
2023/08/30 06:00:29;;;;;;;8.63;5.28;;;14.10;99.90;;;;;;5063954;28;20143;-35
2023/08/30 06:02:54;;;;;;;8.32;4.65;;;14.20;99.90;;;;;;5066320;28;20152;-34
2023/08/30 06:05:20;;;;;;;8.18;4.82;;;14.20;99.90;;;;;;5068578;28;20055;-34
2023/08/30 06:07:46;;;;;;;9.55;4.95;;;14.30;99.90;;;;;;5071322;28;20057;-34
2023/08/30 06:10:12;;;;;;;10.30;5.10;;;14.30;99.90;;;;;;5047471;28;20048;-34
2023/08/30 06:12:38;;;;;;;8.98;4.72;;;14.30;99.90;;;;;;5065846;28;20135;-34
2023/08/30 06:15:04;;;;;;;8.30;5.10;;;14.30;99.90;;;;;;5065517;28;20189;-34
2023/08/30 06:17:30;;;;;;;8.77;5.40;;;14.30;99.90;;;;;;5068177;28;20048;-33
2023/08/30 06:19:56;;;;;;;7.85;4.60;;;14.40;99.90;;;;;;5066084;28;20067;-34
2023/08/30 06:22:21;;;;;;;10.20;5.40;;;14.30;99.90;;;;;;5073053;28;20190;-34
2023/08/30 06:24:47;;;;;;;8.30;4.35;;;14.30;99.90;;;;;;5065529;28;20045;-34
2023/08/30 06:27:13;;;;;;;8.48;4.93;;;14.30;99.90;;;;;;5067569;28;20155;-34
2023/08/30 06:29:38;;;;;;;10.70;4.70;;;14.30;99.90;;;;;;5070134;28;20064;-34
2023/08/30 06:32:05;;;;;;;8.18;4.78;;;14.30;99.90;;;;;;5062044;28;20189;-34
2023/08/30 06:34:30;;;;;;;7.90;4.82;;;14.30;99.90;;;;;;5064254;28;20091;-34
2023/08/30 06:36:56;;;;;;;38.38;7.55;;;14.30;99.90;;;;;;5057138;28;20134;-34
2023/08/30 06:39:22;;;;;;;10.57;4.95;;;14.30;99.90;;;;;;5072154;28;20405;-34
2023/08/30 06:41:48;;;;;;;9.38;4.43;;;14.30;99.90;;;;;;5058673;28;20041;-34
2023/08/30 06:44:13;;;;;;;8.05;4.95;;;14.30;99.90;;;;;;5055150;28;20076;-34
2023/08/30 06:46:39;;;;;;;7.88;4.55;;;14.30;99.90;;;;;;5062463;28;20048;-43
2023/08/30 06:49:05;;;;;;;10.82;5.07;;;14.30;99.90;;;;;;5069005;28;20402;-34
2023/08/30 06:51:31;;;;;;;8.75;4.38;;;14.40;99.90;;;;;;5067721;28;20097;-34
2023/08/30 06:54:00;;;;;;;14.13;5.10;;;14.40;99.90;;;;;;5065322;28;20121;-33
2023/08/30 06:56:26;;;;;;;20.48;5.95;;;14.50;99.90;;;;;;5066330;28;20139;-34
2023/08/30 06:58:52;;;;;;;10.52;5.38;;;14.60;99.90;;;;;;5069925;28;20040;-34
2023/08/30 07:01:17;;;;;;;8.27;4.40;;;14.70;99.90;;;;;;5072264;28;20045;-34
2023/08/30 07:03:43;;;;;;;8.48;4.93;;;14.90;99.90;;;;;;5044700;28;20727;-34
2023/08/30 07:06:09;;;;;;;7.35;4.20;;;15.00;99.90;;;;;;5061335;28;20055;-34
2023/08/30 07:08:35;;;;;;;9.82;5.20;;;15.10;99.90;;;;;;5063713;28;20513;-34
2023/08/30 07:11:01;;;;;;;8.73;5.00;;;15.20;99.90;;;;;;5062591;28;20400;-34
2023/08/30 07:13:26;;;;;;;9.25;5.45;;;15.30;99.90;;;;;;5063012;28;20040;-34
2023/08/30 07:15:53;;;;;;;7.95;4.95;;;15.30;99.90;;;;;;5058442;28;20048;-34
2023/08/30 07:18:18;;;;;;;10.13;5.05;;;15.40;99.90;;;;;;5056760;28;20482;-34
2023/08/30 07:20:44;;;;;;;8.30;4.63;;;15.40;99.90;;;;;;5060337;28;20067;-34
2023/08/30 07:23:11;;;;;;;6.75;4.22;;;15.40;99.90;;;;;;5052318;28;20135;-34
2023/08/30 07:25:37;;;;;;;8.10;5.10;;;15.30;99.90;;;;;;5065658;28;20210;-34
2023/08/30 07:28:04;;;;;;;9.57;5.43;;;15.30;99.90;;;;;;5060146;28;20048;-34
2023/08/30 07:30:29;;;;;;;7.80;4.72;;;15.30;99.90;;;;;;5061136;28;20391;-34
2023/08/30 07:32:56;;;;;;;8.95;4.68;;;15.20;99.90;;;;;;5058254;28;20063;-33
2023/08/30 07:35:22;;;;;;;9.70;5.72;;;15.10;99.90;;;;;;5066520;28;20068;-35
2023/08/30 07:37:47;;;;;;;9.40;4.68;;;15.10;99.90;;;;;;5065635;28;20158;-34
2023/08/30 07:40:13;;;;;;;9.63;5.47;;;15.10;99.90;;;;;;5064520;28;22330;-33
2023/08/30 07:42:39;;;;;;;15.45;5.32;;;15.10;99.90;;;;;;5066801;28;20048;-34
2023/08/30 07:45:05;;;;;;;8.77;4.93;;;15.00;99.90;;;;;;5059782;28;20055;-34
2023/08/30 07:47:31;;;;;;;9.07;5.35;;;15.10;99.90;;;;;;5064883;28;20052;-34
2023/08/30 07:49:56;;;;;;;8.52;5.10;;;15.00;99.90;;;;;;5069172;28;20044;-34
2023/08/30 07:52:22;;;;;;;8.95;5.25;;;15.00;99.90;;;;;;5068350;28;20055;-34
2023/08/30 07:54:48;;;;;;;10.77;5.40;;;15.00;99.90;;;;;;5065234;28;20198;-38
2023/08/30 07:57:13;;;;;;;9.75;5.50;;;14.90;99.90;;;;;;5072814;28;20056;-33
2023/08/30 07:59:39;;;;;;;8.57;5.22;;;14.90;99.90;;;;;;5068366;28;20067;-34
2023/08/30 08:02:09;;;;;;;10.27;5.30;;;14.90;99.90;;;;;;5065845;28;20509;-34
2023/08/30 08:04:35;;;;;;;8.77;4.97;;;14.90;99.90;;;;;;5059177;28;20412;-34
2023/08/30 08:07:02;;;;;;;10.80;5.28;;;15.00;99.90;;;;;;5063469;28;20059;-34
2023/08/30 08:09:27;;;;;;;7.25;4.65;;;15.00;99.90;;;;;;5063721;28;20490;-34
2023/08/30 08:11:53;;;;;;;11.10;5.22;;;15.00;99.90;;;;;;5074995;28;20068;-34
2023/08/30 08:14:19;;;;;;;9.93;4.82;;;15.00;99.90;;;;;;5077923;28;20059;-34
2023/08/30 08:16:44;;;;;;;8.52;4.82;;;15.00;99.90;;;;;;5067648;28;20049;-34
2023/08/30 08:19:12;;;;;;;7.35;4.38;;;14.90;99.90;;;;;;5063738;28;20052;-34
2023/08/30 08:21:38;;;;;;;8.68;4.75;;;14.90;99.90;;;;;;5073888;28;20501;-34
2023/08/30 08:24:03;;;;;;;9.60;4.78;;;14.90;99.90;;;;;;5069639;28;20063;-34
2023/08/30 08:26:29;;;;;;;8.18;3.90;;;14.80;99.90;;;;;;5070072;28;20053;-34
2023/08/30 08:28:55;;;;;;;8.45;4.70;;;14.80;99.90;;;;;;5070425;28;20063;-34
2023/08/30 08:31:21;;;;;;;8.10;5.05;;;14.80;99.90;;;;;;5061889;28;20049;-34
2023/08/30 08:33:51;;;;;;;6.55;4.25;;;14.80;99.90;;;;;;5070090;28;20445;-34
2023/08/30 08:36:16;;;;;;;8.32;4.80;;;14.70;99.90;;;;;;5067734;28;20401;-34
2023/08/30 08:38:42;;;;;;;8.10;4.60;;;14.70;99.90;;;;;;5063409;28;20190;-34
2023/08/30 08:41:14;;;;;;;8.85;4.88;;;14.70;99.90;;;;;;5068509;28;20056;-34
2023/08/30 08:43:41;;;;;;;8.38;4.57;;;14.70;99.90;;;;;;5070981;28;20450;-34
2023/08/30 08:46:11;;;;;;;9.68;4.15;;;14.60;99.90;;;;;;5074533;28;20179;-34
2023/08/30 08:48:41;;;;;;;6.68;4.18;;;14.60;99.90;;;;;;5066897;28;20051;-34
2023/08/30 08:51:06;;;;;;;7.70;4.45;;;14.50;99.90;;;;;;5070102;28;20044;-34
2023/08/30 08:53:32;;;;;;;8.35;4.18;;;14.50;99.90;;;;;;5074813;28;20413;-34
2023/08/30 08:56:00;;;;;;;8.52;3.97;;;14.50;99.90;;;;;;5066919;28;20051;-34
2023/08/30 08:58:26;;;;;;;7.47;4.35;;;14.40;99.90;;;;;;5068574;28;20105;-34
2023/08/30 09:00:52;;;;;;;7.15;4.05;;;14.40;99.90;;;;;;5063312;28;20072;-34
2023/08/30 09:03:18;;;;;;;8.00;4.05;;;14.40;99.90;;;;;;5064922;28;20088;-34
2023/08/30 09:05:46;;;;;;;8.25;4.60;;;14.40;99.90;;;;;;5074213;28;20884;-34
2023/08/30 09:08:13;;;;;;;7.10;4.30;;;14.40;99.90;;;;;;5074187;28;20127;-38
2023/08/30 09:10:39;;;;;;;8.20;4.07;;;14.50;99.90;;;;;;5065079;28;20367;-34
2023/08/30 09:13:05;;;;;;;5.78;3.33;;;14.50;99.90;;;;;;5067090;28;20529;-34
2023/08/30 09:15:38;;;;;;;6.20;3.17;;;14.60;99.90;;;;;;5062175;28;20490;-34
2023/08/30 09:18:04;;;;;;;6.63;2.70;;;14.70;99.90;;;;;;5062479;28;20059;-35
2023/08/30 09:20:30;;;;;;;6.25;2.45;;;14.70;99.90;;;;;;5058050;28;20465;-34
2023/08/30 09:22:55;;;;;;;3.75;1.95;;;14.80;99.90;;;;;;5060510;28;20115;-34
2023/08/30 09:25:26;;;;;;;5.13;2.40;;;14.80;99.90;;;;;;5067342;28;20060;-34
2023/08/30 09:28:00;;;;;;;4.60;2.40;;;15.00;99.90;;;;;;5049354;28;20048;-34
2023/08/30 09:30:26;;;;;;;5.18;2.53;;;15.00;99.90;;;;;;5050120;28;20134;-36
2023/08/30 09:32:52;;;;;;;4.88;2.55;;;15.10;99.90;;;;;;5066362;28;20135;-36
2023/08/30 09:35:18;;;;;;;5.95;2.83;;;15.10;99.90;;;;;;5065254;28;20620;-36
2023/08/30 09:37:47;;;;;;;6.10;2.60;;;15.30;99.90;;;;;;5070486;28;20502;-36
2023/08/30 09:40:18;;;;;;;5.80;2.85;;;15.40;99.90;;;;;;5068743;28;20064;-36
2023/08/30 09:42:44;;;;;;;9.83;3.47;;;15.50;99.90;;;;;;5065501;28;20097;-36
2023/08/30 09:45:21;;;;;;;9.80;3.83;;;15.70;99.90;;;;;;5061711;28;20464;-36
2023/08/30 09:47:50;;;;;;;5.20;2.97;;;15.80;99.90;;;;;;5071827;28;20048;-39
2023/08/30 09:50:18;;;;;;;7.22;3.30;;;15.80;99.90;;;;;;5062433;28;20524;-49
2023/08/30 09:52:46;;;;;;;5.20;3.28;;;15.70;99.90;;;;;;5062755;28;20509;-43
2023/08/30 09:55:12;;;;;;;6.38;3.42;;;15.60;99.90;;;;;;5063093;28;20051;-36
2023/08/30 09:57:39;;;;;;;5.40;3.45;;;15.60;99.90;;;;;;5061579;28;20052;-36
2023/08/30 10:00:06;;;;;;;10.57;3.72;;;15.60;99.90;;;;;;5068396;28;20103;-36
2023/08/30 10:02:33;;;;;;;5.97;3.85;;;15.50;99.90;;;;;;5079566;28;20119;-37
2023/08/30 10:04:59;;;;;;;8.23;3.53;;;15.50;99.90;;;;;;5060380;28;20131;-37
2023/08/30 10:07:25;;;;;;;6.10;3.15;;;15.40;99.90;;;;;;5070369;28;20105;-36
2023/08/30 10:09:52;;;;;;;5.22;3.42;;;15.30;99.90;;;;;;5075426;28;20460;-36
2023/08/30 10:12:24;;;;;;;7.30;3.63;;;15.30;99.90;;;;;;5057772;28;20403;-37
2023/08/30 10:14:50;;;;;;;9.25;3.55;;;15.30;99.90;;;;;;5062953;28;20155;-36
2023/08/30 10:17:20;;;;;;;6.18;3.15;;;15.30;99.90;;;;;;5061293;28;20071;-36
2023/08/30 10:19:47;;;;;;;6.03;2.95;;;15.20;99.90;;;;;;5050647;28;20056;-37
2023/08/30 10:22:16;;;;;;;5.05;2.92;;;15.20;99.90;;;;;;5055064;28;20077;-37
2023/08/30 10:24:48;;;;;;;6.20;3.10;;;15.20;99.90;;;;;;5048095;28;20062;-36
2023/08/30 10:27:15;;;;;;;6.15;3.33;;;15.10;99.90;;;;;;5023344;28;20041;-37
2023/08/30 10:29:42;;;;;;;16.42;4.50;;;15.10;99.90;;;;;;5027504;28;20140;-36
2023/08/30 10:32:08;;;;;;;23.15;5.60;;;15.10;99.90;;;;;;5035577;28;20076;-37
2023/08/30 10:34:35;;;;;;;6.43;3.30;;;15.10;99.90;;;;;;5023451;28;20448;-37
2023/08/30 10:37:03;;;;;;;7.25;3.60;;;15.00;99.90;;;;;;5027418;28;20052;-37
2023/08/30 10:39:38;;;;;;;5.20;3.40;;;15.00;99.90;;;;;;5028639;28;20061;-46
2023/08/30 10:42:09;;;;;;;6.72;3.70;;;15.00;99.90;;;;;;5029560;28;20491;-38
2023/08/30 10:44:47;;;;;;;5.78;3.58;;;15.00;99.90;;;;;;5037797;28;20052;-37
2023/08/30 10:47:31;;;;;;;5.55;3.28;;;15.00;99.90;;;;;;5049476;28;20049;-37
2023/08/30 10:49:59;;;;;;;5.55;3.15;;;15.00;99.90;;;;;;5048602;28;20115;-36
2023/08/30 10:52:26;;;;;;;5.75;3.17;;;15.00;99.90;;;;;;5043152;28;20087;-36
2023/08/30 10:54:52;;;;;;;7.53;4.38;;;15.00;99.90;;;;;;5044978;28;20411;-37
2023/08/30 10:57:24;;;;;;;5.93;3.65;;;15.00;99.90;;;;;;5052749;28;20114;-36
2023/08/30 11:00:07;;;;;;;5.47;3.20;;;14.90;99.90;;;;;;5050804;28;20056;-37
2023/08/30 11:02:32;;;;;;;;;;;15.00;99.90;;;;;;5048898;28;20538;-38
2023/08/30 11:04:59;;;;;;;5.15;3.25;;;15.00;99.90;;;;;;5051611;28;20003;-36
2023/08/30 11:07:28;;;;;;;5.85;3.42;;;15.00;99.90;;;;;;5047014;28;20107;-37
2023/08/30 11:09:54;;;;;;;6.85;3.17;;;15.00;99.90;;;;;;5047968;28;20056;-37
2023/08/30 11:12:23;;;;;;;5.05;3.10;;;15.00;99.90;;;;;;5052380;28;20048;-36
2023/08/30 11:14:49;;;;;;;7.15;3.72;;;15.00;99.90;;;;;;5048827;28;20486;-37
2023/08/30 11:17:19;;;;;;;6.88;3.55;;;15.00;99.90;;;;;;5050033;28;20552;-37
2023/08/30 11:19:45;;;;;;;5.80;3.55;;;15.00;99.90;;;;;;5054152;28;20497;-37
2023/08/30 11:22:12;;;;;;;4.97;3.38;;;15.00;99.90;;;;;;5050315;28;20064;-37
2023/08/30 11:24:39;;;;;;;6.78;4.05;;;15.00;99.90;;;;;;5044686;28;20076;-38
2023/08/30 11:27:05;;;;;;;6.45;4.13;;;15.00;99.90;;;;;;5045093;28;20059;-37
2023/08/30 11:29:30;;;;;;;6.97;3.88;;;15.00;99.90;;;;;;5049412;28;20045;-36
2023/08/30 11:31:56;;;;;;;6.57;3.90;;;15.00;99.90;;;;;;5050136;28;20080;-36
2023/08/30 11:34:22;;;;;;;6.78;3.80;;;15.00;99.90;;;;;;5051416;28;20072;-36
2023/08/30 11:36:50;;;;;;;6.68;4.15;;;15.00;99.90;;;;;;5045215;28;20586;-37
2023/08/30 11:39:20;;;;;;;7.03;3.92;;;15.10;99.90;;;;;;5038739;28;20044;-36
2023/08/30 11:41:46;;;;;;;5.60;3.90;;;15.10;99.90;;;;;;5045163;28;20045;-37
2023/08/30 11:44:12;;;;;;;5.05;3.47;;;15.20;99.90;;;;;;5045258;28;20532;-36
2023/08/30 11:46:38;;;;;;;5.60;3.22;;;15.20;99.90;;;;;;5039775;28;20057;-37
2023/08/30 11:49:04;;;;;;;5.45;3.47;;;15.20;99.90;;;;;;5045175;28;20490;-37
2023/08/30 11:51:31;;;;;;;5.93;3.72;;;15.20;99.90;;;;;;5045467;28;20053;-36
2023/08/30 11:53:57;;;;;;;5.43;3.45;;;15.20;99.90;;;;;;5051140;28;20049;-37
2023/08/30 11:56:23;;;;;;;5.22;3.13;;;15.20;99.90;;;;;;5014945;28;20045;-37
2023/08/30 11:58:49;;;;;;;4.25;2.70;;;15.20;99.90;;;;;;5049638;28;20129;-38
2023/08/30 12:01:15;;;;;;;5.25;3.40;;;15.30;99.90;;;;;;5045637;28;20138;-37
2023/08/30 12:03:41;;;;;;;5.50;2.85;;;15.40;99.90;;;;;;5041472;28;20063;-36
2023/08/30 12:06:11;;;;;;;5.22;3.42;;;15.40;99.90;;;;;;5035522;28;20053;-37
2023/08/30 12:08:37;;;;;;;5.90;3.08;;;15.40;99.90;;;;;;5039448;28;20493;-36
2023/08/30 12:11:03;;;;;;;4.40;2.97;;;15.40;99.90;;;;;;5041596;28;20076;-36
2023/08/30 12:13:32;;;;;;;5.50;2.90;;;15.50;99.90;;;;;;5045781;28;20391;-35
2023/08/30 12:15:59;;;;;;;3.88;2.40;;;15.40;99.90;;;;;;5032582;28;20071;-37
2023/08/30 12:18:28;;;;;;;4.55;2.70;;;15.40;99.90;;;;;;5033708;28;20537;-36
2023/08/30 12:21:02;;;;;;;3.17;2.28;;;15.30;99.90;;;;;;5042402;28;20061;-36
2023/08/30 12:23:32;;;;;;;5.18;2.60;;;15.20;99.90;;;;;;5032910;28;20053;-36
2023/08/30 12:26:06;;;;;;;3.03;2.15;;;15.20;99.90;;;;;;5040566;28;20072;-36
2023/08/30 12:28:40;;;;;;;3.90;2.53;;;15.30;99.90;;;;;;5041900;28;20053;-35
2023/08/30 12:31:10;;;;;;;4.13;2.15;;;15.40;99.90;;;;;;5039988;28;20139;-37
2023/08/30 12:33:37;;;;;;;3.75;2.50;;;15.50;99.90;;;;;;5047258;28;20087;-36
2023/08/30 12:36:03;;;;;;;3.80;2.40;;;15.40;99.90;;;;;;5047357;28;20119;-37
2023/08/30 12:38:30;;;;;;;4.22;2.80;;;15.40;99.90;;;;;;5040739;28;20052;-36
2023/08/30 12:40:56;;;;;;;3.92;2.67;;;15.40;99.90;;;;;;5017335;28;20570;-36
2023/08/30 12:43:23;;;;;;;4.03;2.40;;;15.40;99.90;;;;;;5041731;28;20548;-36